sensor_id;sensor_type;location;lat;lon;timestamp;temperature;humidity
17053;DHT22;8643;48.824;11.422;2023-04-01T00:01:21;8.70;99.90
17053;DHT22;8643;48.824;11.422;2023-04-01T00:03:52;8.60;99.90
17053;DHT22;8643;48.824;11.422;2023-04-01T00:08:50;8.60;99.90
17053;DHT22;8643;48.824;11.422;2023-04-01T00:11:21;8.60;99.90
17053;DHT22;8643;48.824;11.422;2023-04-01T00:13:50;8.50;99.90
17053;DHT22;8643;48.824;11.422;2023-04-01T00:18:49;5.30;99.90
17053;DHT22;8643;48.824;11.422;2023-04-01T00:21:20;8.50;99.90
17053;DHT22;8643;48.824;11.422;2023-04-01T00:23:50;7.30;99.90
17053;DHT22;8643;48.824;11.422;2023-04-01T00:26:19;8.50;99.90
17053;DHT22;8643;48.824;11.422;2023-04-01T00:31:18;8.50;99.90
17053;DHT22;8643;48.824;11.422;2023-04-01T00:36:20;8.40;99.90
17053;DHT22;8643;48.824;11.422;2023-04-01T00:41:19;8.30;99.90
17053;DHT22;8643;48.824;11.422;2023-04-01T00:43:50;8.40;99.90
17053;DHT22;8643;48.824;11.422;2023-04-01T00:46:20;8.30;99.90
17053;DHT22;8643;48.824;11.422;2023-04-01T00:48:51;8.30;99.90
17053;DHT22;8643;48.824;11.422;2023-04-01T00:51:27;8.30;99.90
17053;DHT22;8643;48.824;11.422;2023-04-01T00:53:59;8.30;99.90
17053;DHT22;8643;48.824;11.422;2023-04-01T00:56:33;8.30;99.90
17053;DHT22;8643;48.824;11.422;2023-04-01T00:59:07;8.20;99.90
17053;DHT22;8643;48.824;11.422;2023-04-01T01:04:21;8.20;99.90
17053;DHT22;8643;48.824;11.422;2023-04-01T01:06:59;8.20;99.90
17053;DHT22;8643;48.824;11.422;2023-04-01T01:09:43;8.20;99.90
17053;DHT22;8643;48.824;11.422;2023-04-01T01:12:22;8.10;99.90
17053;DHT22;8643;48.824;11.422;2023-04-01T01:15:05;8.20;99.90
17053;DHT22;8643;48.824;11.422;2023-04-01T01:17:48;8.10;99.90
17053;DHT22;8643;48.824;11.422;2023-04-01T01:26:58;7.90;99.90
17053;DHT22;8643;48.824;11.422;2023-04-01T01:29:58;7.90;99.90
17053;DHT22;8643;48.824;11.422;2023-04-01T01:33:06;7.80;99.90
17053;DHT22;8643;48.824;11.422;2023-04-01T01:35:46;7.70;99.90
17053;DHT22;8643;48.824;11.422;2023-04-01T01:38:22;7.70;99.90
17053;DHT22;8643;48.824;11.422;2023-04-01T01:41:05;7.80;99.90
17053;DHT22;8643;48.824;11.422;2023-04-01T01:43:39;7.70;99.90
17053;DHT22;8643;48.824;11.422;2023-04-01T01:48:49;7.60;99.90
17053;DHT22;8643;48.824;11.422;2023-04-01T01:56:23;7.70;99.90
17053;DHT22;8643;48.824;11.422;2023-04-01T02:04:13;6.90;99.90
17053;DHT22;8643;48.824;11.422;2023-04-01T02:06:49;7.70;99.90
17053;DHT22;8643;48.824;11.422;2023-04-01T02:11:51;7.70;99.90
17053;DHT22;8643;48.824;11.422;2023-04-01T02:14:26;7.70;99.90
17053;DHT22;8643;48.824;11.422;2023-04-01T02:17:03;7.80;99.90
17053;DHT22;8643;48.824;11.422;2023-04-01T02:19:38;7.80;99.90
17053;DHT22;8643;48.824;11.422;2023-04-01T02:22:15;7.80;99.90
17053;DHT22;8643;48.824;11.422;2023-04-01T02:24:49;7.70;99.90
17053;DHT22;8643;48.824;11.422;2023-04-01T02:27:20;7.80;99.90
17053;DHT22;8643;48.824;11.422;2023-04-01T02:29:49;7.80;99.90
17053;DHT22;8643;48.824;11.422;2023-04-01T02:32:19;7.80;99.90
17053;DHT22;8643;48.824;11.422;2023-04-01T02:37:20;7.80;99.90
17053;DHT22;8643;48.824;11.422;2023-04-01T02:39:49;7.80;99.90
17053;DHT22;8643;48.824;11.422;2023-04-01T02:42:17;6.80;99.90
17053;DHT22;8643;48.824;11.422;2023-04-01T02:49:44;7.90;99.90
17053;DHT22;8643;48.824;11.422;2023-04-01T02:52:12;7.80;99.90
17053;DHT22;8643;48.824;11.422;2023-04-01T02:54:42;7.80;99.90
17053;DHT22;8643;48.824;11.422;2023-04-01T02:57:11;7.70;99.90
17053;DHT22;8643;48.824;11.422;2023-04-01T03:04:37;7.80;99.90
17053;DHT22;8643;48.824;11.422;2023-04-01T03:12:06;7.70;99.90
17053;DHT22;8643;48.824;11.422;2023-04-01T03:19:43;7.30;99.90
17053;DHT22;8643;48.824;11.422;2023-04-01T03:27:10;7.40;99.90
17053;DHT22;8643;48.824;11.422;2023-04-01T03:29:39;7.40;99.90
17053;DHT22;8643;48.824;11.422;2023-04-01T03:34:37;7.50;99.90
17053;DHT22;8643;48.824;11.422;2023-04-01T03:37:08;7.50;99.90
17053;DHT22;8643;48.824;11.422;2023-04-01T03:39:36;7.60;99.90
17053;DHT22;8643;48.824;11.422;2023-04-01T03:52:09;7.70;99.90
17053;DHT22;8643;48.824;11.422;2023-04-01T03:57:08;7.80;99.90
17053;DHT22;8643;48.824;11.422;2023-04-01T03:59:38;7.60;99.90
17053;DHT22;8643;48.824;11.422;2023-04-01T04:04:37;7.40;99.90
17053;DHT22;8643;48.824;11.422;2023-04-01T04:09:54;6.70;99.90
17053;DHT22;8643;48.824;11.422;2023-04-01T04:12:23;6.40;99.90
17053;DHT22;8643;48.824;11.422;2023-04-01T04:24:50;7.20;99.90
17053;DHT22;8643;48.824;11.422;2023-04-01T04:29:59;7.30;99.90
17053;DHT22;8643;48.824;11.422;2023-04-01T04:42:24;7.50;99.90
17053;DHT22;8643;48.824;11.422;2023-04-01T04:45:01;7.50;99.90
17053;DHT22;8643;48.824;11.422;2023-04-01T04:49:59;7.40;99.90
17053;DHT22;8643;48.824;11.422;2023-04-01T04:54:57;7.50;99.90
17053;DHT22;8643;48.824;11.422;2023-04-01T04:57:25;7.50;99.90
17053;DHT22;8643;48.824;11.422;2023-04-01T04:59:55;7.50;99.90
17053;DHT22;8643;48.824;11.422;2023-04-01T05:02:52;7.60;99.90
17053;DHT22;8643;48.824;11.422;2023-04-01T05:07:50;7.60;99.90
17053;DHT22;8643;48.824;11.422;2023-04-01T05:10:19;7.60;99.90
17053;DHT22;8643;48.824;11.422;2023-04-01T05:15:21;7.60;99.90
17053;DHT22;8643;48.824;11.422;2023-04-01T05:17:51;7.50;99.90
17053;DHT22;8643;48.824;11.422;2023-04-01T05:20:20;7.60;99.90
17053;DHT22;8643;48.824;11.422;2023-04-01T05:23:01;7.60;99.90
17053;DHT22;8643;48.824;11.422;2023-04-01T05:30:28;8.00;99.90
17053;DHT22;8643;48.824;11.422;2023-04-01T05:33:02;7.60;99.90
17053;DHT22;8643;48.824;11.422;2023-04-01T05:35:31;7.60;99.90
17053;DHT22;8643;48.824;11.422;2023-04-01T05:40:29;8.10;99.90
17053;DHT22;8643;48.824;11.422;2023-04-01T05:42:58;7.70;99.90
17053;DHT22;8643;48.824;11.422;2023-04-01T05:48:13;7.60;99.90
17053;DHT22;8643;48.824;11.422;2023-04-01T05:53:11;7.70;99.90
17053;DHT22;8643;48.824;11.422;2023-04-01T06:03:29;7.90;99.90
17053;DHT22;8643;48.824;11.422;2023-04-01T06:08:29;7.90;99.90
17053;DHT22;8643;48.824;11.422;2023-04-01T06:13:53;7.90;99.90
17053;DHT22;8643;48.824;11.422;2023-04-01T06:16:46;8.00;99.90
17053;DHT22;8643;48.824;11.422;2023-04-01T06:22:33;8.00;99.90
17053;DHT22;8643;48.824;11.422;2023-04-01T06:25:34;8.10;99.90
17053;DHT22;8643;48.824;11.422;2023-04-01T06:28:44;8.10;99.90
17053;DHT22;8643;48.824;11.422;2023-04-01T06:38:04;8.20;99.90
17053;DHT22;8643;48.824;11.422;2023-04-01T06:41:06;8.30;99.90
17053;DHT22;8643;48.824;11.422;2023-04-01T06:43:53;8.30;99.90
17053;DHT22;8643;48.824;11.422;2023-04-01T06:46:57;8.40;99.90
17053;DHT22;8643;48.824;11.422;2023-04-01T06:49:53;8.90;99.90
17053;DHT22;8643;48.824;11.422;2023-04-01T06:53:12;8.40;99.90
17053;DHT22;8643;48.824;11.422;2023-04-01T06:56:08;8.50;99.90
17053;DHT22;8643;48.824;11.422;2023-04-01T06:58:42;8.50;99.90
17053;DHT22;8643;48.824;11.422;2023-04-01T07:01:21;8.50;99.90
17053;DHT22;8643;48.824;11.422;2023-04-01T07:03:56;8.60;99.90
17053;DHT22;8643;48.824;11.422;2023-04-01T07:06:36;8.70;99.90
17053;DHT22;8643;48.824;11.422;2023-04-01T07:09:12;8.80;99.90
17053;DHT22;8643;48.824;11.422;2023-04-01T07:12:10;8.60;99.90
17053;DHT22;8643;48.824;11.422;2023-04-01T07:17:53;9.00;99.90
17053;DHT22;8643;48.824;11.422;2023-04-01T07:20:26;9.10;99.90
17053;DHT22;8643;48.824;11.422;2023-04-01T07:23:05;9.30;99.90
17053;DHT22;8643;48.824;11.422;2023-04-01T07:26:11;9.40;99.90
17053;DHT22;8643;48.824;11.422;2023-04-01T07:29:05;9.60;99.90
17053;DHT22;8643;48.824;11.422;2023-04-01T07:35:07;9.70;99.90
17053;DHT22;8643;48.824;11.422;2023-04-01T07:38:05;9.70;99.90
17053;DHT22;8643;48.824;11.422;2023-04-01T07:40:49;9.70;99.90
17053;DHT22;8643;48.824;11.422;2023-04-01T07:43:48;9.70;99.90
17053;DHT22;8643;48.824;11.422;2023-04-01T07:46:47;9.80;99.90
17053;DHT22;8643;48.824;11.422;2023-04-01T07:49:25;9.90;99.90
17053;DHT22;8643;48.824;11.422;2023-04-01T07:54:47;10.20;99.90
17053;DHT22;8643;48.824;11.422;2023-04-01T07:57:22;10.20;99.90
17053;DHT22;8643;48.824;11.422;2023-04-01T08:00:02;10.30;99.90
17053;DHT22;8643;48.824;11.422;2023-04-01T08:03:24;10.40;99.90
17053;DHT22;8643;48.824;11.422;2023-04-01T08:06:12;10.60;99.90
17053;DHT22;8643;48.824;11.422;2023-04-01T08:08:56;10.90;99.90
17053;DHT22;8643;48.824;11.422;2023-04-01T08:12:01;11.10;99.90
17053;DHT22;8643;48.824;11.422;2023-04-01T08:15:09;11.00;99.90
17053;DHT22;8643;48.824;11.422;2023-04-01T08:20:37;10.50;99.90
17053;DHT22;8643;48.824;11.422;2023-04-01T08:23:15;10.50;99.90
17053;DHT22;8643;48.824;11.422;2023-04-01T08:28:29;10.20;99.90
17053;DHT22;8643;48.824;11.422;2023-04-01T08:31:06;10.20;99.90
17053;DHT22;8643;48.824;11.422;2023-04-01T08:33:43;10.20;99.90
17053;DHT22;8643;48.824;11.422;2023-04-01T08:36:19;10.10;99.90
17053;DHT22;8643;48.824;11.422;2023-04-01T08:39:05;10.10;99.90
17053;DHT22;8643;48.824;11.422;2023-04-01T08:45:11;10.10;99.90
17053;DHT22;8643;48.824;11.422;2023-04-01T08:51:22;10.40;99.90
17053;DHT22;8643;48.824;11.422;2023-04-01T08:54:52;10.50;99.90
17053;DHT22;8643;48.824;11.422;2023-04-01T09:01:13;10.50;99.90
17053;DHT22;8643;48.824;11.422;2023-04-01T09:04:14;10.50;99.90
17053;DHT22;8643;48.824;11.422;2023-04-01T09:07:08;10.40;99.90
17053;DHT22;8643;48.824;11.422;2023-04-01T09:16:15;10.50;99.90
17053;DHT22;8643;48.824;11.422;2023-04-01T09:19:11;10.40;99.90
17053;DHT22;8643;48.824;11.422;2023-04-01T09:22:04;10.40;99.90
17053;DHT22;8643;48.824;11.422;2023-04-01T09:27:56;10.30;99.90
17053;DHT22;8643;48.824;11.422;2023-04-01T09:30:59;10.30;99.90
17053;DHT22;8643;48.824;11.422;2023-04-01T09:34:26;10.20;99.90
17053;DHT22;8643;48.824;11.422;2023-04-01T09:37:19;10.30;99.90
17053;DHT22;8643;48.824;11.422;2023-04-01T09:40:14;10.30;99.90
17053;DHT22;8643;48.824;11.422;2023-04-01T09:43:20;10.40;99.90
17053;DHT22;8643;48.824;11.422;2023-04-01T09:46:09;10.40;99.90
17053;DHT22;8643;48.824;11.422;2023-04-01T09:52:35;10.30;99.90
17053;DHT22;8643;48.824;11.422;2023-04-01T09:59:03;10.30;99.90
17053;DHT22;8643;48.824;11.422;2023-04-01T10:06:11;10.30;99.90
17053;DHT22;8643;48.824;11.422;2023-04-01T10:12:37;10.40;99.90
17053;DHT22;8643;48.824;11.422;2023-04-01T10:19:09;10.50;99.90
17053;DHT22;8643;48.824;11.422;2023-04-01T10:22:15;10.60;99.90
17053;DHT22;8643;48.824;11.422;2023-04-01T10:28:12;10.70;99.90
17053;DHT22;8643;48.824;11.422;2023-04-01T10:31:41;10.60;99.90
17053;DHT22;8643;48.824;11.422;2023-04-01T10:36:54;11.00;99.90
17053;DHT22;8643;48.824;11.422;2023-04-01T10:40:13;10.10;99.90
17053;DHT22;8643;48.824;11.422;2023-04-01T10:43:40;9.90;99.90
17053;DHT22;8643;48.824;11.422;2023-04-01T10:46:58;9.80;99.90
17053;DHT22;8643;48.824;11.422;2023-04-01T10:56:40;9.30;99.90
17053;DHT22;8643;48.824;11.422;2023-04-01T11:00:03;9.10;99.90
17053;DHT22;8643;48.824;11.422;2023-04-01T11:07:28;8.90;99.90
17053;DHT22;8643;48.824;11.422;2023-04-01T11:11:04;8.90;99.90
17053;DHT22;8643;48.824;11.422;2023-04-01T11:14:20;8.70;99.90
17053;DHT22;8643;48.824;11.422;2023-04-01T11:17:42;8.70;99.90
17053;DHT22;8643;48.824;11.422;2023-04-01T11:24:36;8.60;99.90
17053;DHT22;8643;48.824;11.422;2023-04-01T11:27:52;8.60;99.90
17053;DHT22;8643;48.824;11.422;2023-04-01T11:30:56;8.60;99.90
17053;DHT22;8643;48.824;11.422;2023-04-01T11:33:44;8.50;99.90
17053;DHT22;8643;48.824;11.422;2023-04-01T11:36:27;8.50;99.90
17053;DHT22;8643;48.824;11.422;2023-04-01T11:39:17;8.60;99.90
17053;DHT22;8643;48.824;11.422;2023-04-01T11:42:11;8.50;99.90
17053;DHT22;8643;48.824;11.422;2023-04-01T11:44:58;8.60;99.90
17053;DHT22;8643;48.824;11.422;2023-04-01T11:48:03;8.60;99.90
17053;DHT22;8643;48.824;11.422;2023-04-01T11:50:55;8.50;99.90
17053;DHT22;8643;48.824;11.422;2023-04-01T11:53:43;8.50;99.90
17053;DHT22;8643;48.824;11.422;2023-04-01T11:56:32;8.50;99.90
17053;DHT22;8643;48.824;11.422;2023-04-01T12:02:47;8.50;99.90
17053;DHT22;8643;48.824;11.422;2023-04-01T12:05:37;8.40;99.90
17053;DHT22;8643;48.824;11.422;2023-04-01T12:08:24;8.60;99.90
17053;DHT22;8643;48.824;11.422;2023-04-01T12:11:09;8.40;99.90
17053;DHT22;8643;48.824;11.422;2023-04-01T12:13:50;8.40;99.90
17053;DHT22;8643;48.824;11.422;2023-04-01T12:16:44;8.30;99.90
17053;DHT22;8643;48.824;11.422;2023-04-01T12:19:28;8.30;99.90
17053;DHT22;8643;48.824;11.422;2023-04-01T12:22:32;8.40;99.90
17053;DHT22;8643;48.824;11.422;2023-04-01T12:25:26;8.40;99.90
17053;DHT22;8643;48.824;11.422;2023-04-01T12:28:14;8.40;99.90
17053;DHT22;8643;48.824;11.422;2023-04-01T12:31:06;8.40;99.90
17053;DHT22;8643;48.824;11.422;2023-04-01T12:34:19;8.40;99.90
17053;DHT22;8643;48.824;11.422;2023-04-01T12:37:11;8.40;99.90
17053;DHT22;8643;48.824;11.422;2023-04-01T12:39:56;8.40;99.90
17053;DHT22;8643;48.824;11.422;2023-04-01T12:42:47;8.50;99.90
17053;DHT22;8643;48.824;11.422;2023-04-01T12:45:31;8.60;99.90
17053;DHT22;8643;48.824;11.422;2023-04-01T12:51:36;8.90;99.90
17053;DHT22;8643;48.824;11.422;2023-04-01T12:58:10;8.90;99.90
17053;DHT22;8643;48.824;11.422;2023-04-01T13:01:03;8.70;99.90
17053;DHT22;8643;48.824;11.422;2023-04-01T13:07:16;8.80;99.90
17053;DHT22;8643;48.824;11.422;2023-04-01T13:10:13;8.80;99.90
17053;DHT22;8643;48.824;11.422;2023-04-01T13:16:15;8.80;99.90
17053;DHT22;8643;48.824;11.422;2023-04-01T13:18:56;8.80;99.90
17053;DHT22;8643;48.824;11.422;2023-04-01T13:21:39;8.90;99.90
17053;DHT22;8643;48.824;11.422;2023-04-01T13:24:37;8.90;99.90
17053;DHT22;8643;48.824;11.422;2023-04-01T13:27:18;8.90;99.90
17053;DHT22;8643;48.824;11.422;2023-04-01T13:30:01;8.90;99.90
17053;DHT22;8643;48.824;11.422;2023-04-01T13:32:41;8.90;99.90
17053;DHT22;8643;48.824;11.422;2023-04-01T13:35:31;9.10;99.90
17053;DHT22;8643;48.824;11.422;2023-04-01T13:38:20;9.10;99.90
17053;DHT22;8643;48.824;11.422;2023-04-01T13:41:19;9.20;99.90
17053;DHT22;8643;48.824;11.422;2023-04-01T13:44:01;9.20;99.90
17053;DHT22;8643;48.824;11.422;2023-04-01T13:47:12;9.20;99.90
17053;DHT22;8643;48.824;11.422;2023-04-01T13:53:22;9.10;99.90
17053;DHT22;8643;48.824;11.422;2023-04-01T13:56:14;9.20;99.90
17053;DHT22;8643;48.824;11.422;2023-04-01T13:59:08;9.10;99.90
17053;DHT22;8643;48.824;11.422;2023-04-01T14:02:07;9.20;99.90
17053;DHT22;8643;48.824;11.422;2023-04-01T14:05:24;9.90;99.90
17053;DHT22;8643;48.824;11.422;2023-04-01T14:08:20;9.30;99.90
17053;DHT22;8643;48.824;11.422;2023-04-01T14:11:16;9.40;99.90
17053;DHT22;8643;48.824;11.422;2023-04-01T14:13:59;9.70;99.90
17053;DHT22;8643;48.824;11.422;2023-04-01T14:17:06;9.60;99.90
17053;DHT22;8643;48.824;11.422;2023-04-01T14:20:07;9.70;99.90
17053;DHT22;8643;48.824;11.422;2023-04-01T14:23:02;9.90;99.90
17053;DHT22;8643;48.824;11.422;2023-04-01T14:26:11;9.90;99.90
17053;DHT22;8643;48.824;11.422;2023-04-01T14:28:55;10.00;99.90
17053;DHT22;8643;48.824;11.422;2023-04-01T14:31:41;10.00;99.90
17053;DHT22;8643;48.824;11.422;2023-04-01T14:34:28;10.00;99.90
17053;DHT22;8643;48.824;11.422;2023-04-01T14:37:19;10.00;99.90
17053;DHT22;8643;48.824;11.422;2023-04-01T14:40:20;10.00;99.90
17053;DHT22;8643;48.824;11.422;2023-04-01T14:43:13;9.90;99.90
17053;DHT22;8643;48.824;11.422;2023-04-01T14:49:04;10.00;99.90
17053;DHT22;8643;48.824;11.422;2023-04-01T14:54:17;10.10;99.90
17053;DHT22;8643;48.824;11.422;2023-04-01T14:57:03;10.90;99.90
17053;DHT22;8643;48.824;11.422;2023-04-01T14:59:49;10.20;99.90
17053;DHT22;8643;48.824;11.422;2023-04-01T15:02:33;10.20;99.90
17053;DHT22;8643;48.824;11.422;2023-04-01T15:05:21;10.10;99.90
17053;DHT22;8643;48.824;11.422;2023-04-01T15:08:05;10.00;99.90
17053;DHT22;8643;48.824;11.422;2023-04-01T15:11:12;9.90;99.90
17053;DHT22;8643;48.824;11.422;2023-04-01T15:14:16;9.80;99.90
17053;DHT22;8643;48.824;11.422;2023-04-01T15:17:02;9.80;99.90
17053;DHT22;8643;48.824;11.422;2023-04-01T15:20:03;9.70;99.90
17053;DHT22;8643;48.824;11.422;2023-04-01T15:22:58;9.70;99.90
17053;DHT22;8643;48.824;11.422;2023-04-01T15:25:48;9.60;99.90
17053;DHT22;8643;48.824;11.422;2023-04-01T15:28:35;9.60;99.90
17053;DHT22;8643;48.824;11.422;2023-04-01T15:31:15;10.00;99.90
17053;DHT22;8643;48.824;11.422;2023-04-01T15:34:11;9.30;99.90
17053;DHT22;8643;48.824;11.422;2023-04-01T15:36:55;9.20;99.90
17053;DHT22;8643;48.824;11.422;2023-04-01T15:39:43;9.30;99.90
17053;DHT22;8643;48.824;11.422;2023-04-01T15:42:41;9.20;99.90
17053;DHT22;8643;48.824;11.422;2023-04-01T15:45:33;9.20;99.90
17053;DHT22;8643;48.824;11.422;2023-04-01T15:48:38;9.20;99.90
17053;DHT22;8643;48.824;11.422;2023-04-01T15:51:45;9.20;99.90
17053;DHT22;8643;48.824;11.422;2023-04-01T15:57:32;9.10;99.90
17053;DHT22;8643;48.824;11.422;2023-04-01T16:00:28;9.10;99.90
17053;DHT22;8643;48.824;11.422;2023-04-01T16:03:19;9.00;99.90
17053;DHT22;8643;48.824;11.422;2023-04-01T16:06:18;9.00;99.90
17053;DHT22;8643;48.824;11.422;2023-04-01T16:09:15;9.00;99.90
17053;DHT22;8643;48.824;11.422;2023-04-01T16:11:57;6.80;99.90
17053;DHT22;8643;48.824;11.422;2023-04-01T16:14:42;8.90;99.90
17053;DHT22;8643;48.824;11.422;2023-04-01T16:17:43;8.90;99.90
17053;DHT22;8643;48.824;11.422;2023-04-01T16:20:46;8.80;99.90
17053;DHT22;8643;48.824;11.422;2023-04-01T16:23:26;8.80;99.90
17053;DHT22;8643;48.824;11.422;2023-04-01T16:26:09;8.70;99.90
17053;DHT22;8643;48.824;11.422;2023-04-01T16:28:50;8.70;99.90
17053;DHT22;8643;48.824;11.422;2023-04-01T16:31:32;8.80;99.90
17053;DHT22;8643;48.824;11.422;2023-04-01T16:34:09;8.80;99.90
17053;DHT22;8643;48.824;11.422;2023-04-01T16:36:47;8.80;99.90
17053;DHT22;8643;48.824;11.422;2023-04-01T16:42:13;8.90;99.90
17053;DHT22;8643;48.824;11.422;2023-04-01T16:44:50;8.90;99.90
17053;DHT22;8643;48.824;11.422;2023-04-01T16:50:00;8.90;99.90
17053;DHT22;8643;48.824;11.422;2023-04-01T16:52:48;8.90;99.90
17053;DHT22;8643;48.824;11.422;2023-04-01T16:55:35;8.90;99.90
17053;DHT22;8643;48.824;11.422;2023-04-01T16:58:21;8.90;99.90
17053;DHT22;8643;48.824;11.422;2023-04-01T17:00:55;8.90;99.90
17053;DHT22;8643;48.824;11.422;2023-04-01T17:03:33;8.90;99.90
17053;DHT22;8643;48.824;11.422;2023-04-01T17:06:23;8.90;99.90
17053;DHT22;8643;48.824;11.422;2023-04-01T17:09:18;8.80;99.90
17053;DHT22;8643;48.824;11.422;2023-04-01T17:11:59;8.90;99.90
17053;DHT22;8643;48.824;11.422;2023-04-01T17:17:37;8.80;99.90
17053;DHT22;8643;48.824;11.422;2023-04-01T17:20:18;8.70;99.90
17053;DHT22;8643;48.824;11.422;2023-04-01T17:23:01;8.70;99.90
17053;DHT22;8643;48.824;11.422;2023-04-01T17:25:57;8.70;99.90
17053;DHT22;8643;48.824;11.422;2023-04-01T17:28:44;8.60;99.90
17053;DHT22;8643;48.824;11.422;2023-04-01T17:31:32;8.70;99.90
17053;DHT22;8643;48.824;11.422;2023-04-01T17:34:23;8.60;99.90
17053;DHT22;8643;48.824;11.422;2023-04-01T17:37:15;8.60;99.90
17053;DHT22;8643;48.824;11.422;2023-04-01T17:40:06;8.50;99.90
17053;DHT22;8643;48.824;11.422;2023-04-01T17:42:54;8.50;99.90
17053;DHT22;8643;48.824;11.422;2023-04-01T17:45:33;8.50;99.90
17053;DHT22;8643;48.824;11.422;2023-04-01T17:48:18;8.50;99.90
17053;DHT22;8643;48.824;11.422;2023-04-01T17:54:02;8.50;99.90
17053;DHT22;8643;48.824;11.422;2023-04-01T17:56:52;8.50;99.90
17053;DHT22;8643;48.824;11.422;2023-04-01T17:59:35;8.50;99.90
17053;DHT22;8643;48.824;11.422;2023-04-01T18:02:17;8.50;99.90
17053;DHT22;8643;48.824;11.422;2023-04-01T18:05:22;8.60;99.90
17053;DHT22;8643;48.824;11.422;2023-04-01T18:08:12;8.50;99.90
17053;DHT22;8643;48.824;11.422;2023-04-01T18:10:54;8.50;99.90
17053;DHT22;8643;48.824;11.422;2023-04-01T18:17:17;8.50;99.90
17053;DHT22;8643;48.824;11.422;2023-04-01T18:20:07;8.50;99.90
17053;DHT22;8643;48.824;11.422;2023-04-01T18:22:53;8.50;99.90
17053;DHT22;8643;48.824;11.422;2023-04-01T18:25:30;8.40;99.90
17053;DHT22;8643;48.824;11.422;2023-04-01T18:28:22;8.50;99.90
17053;DHT22;8643;48.824;11.422;2023-04-01T18:31:07;8.50;99.90
17053;DHT22;8643;48.824;11.422;2023-04-01T18:33:50;8.60;99.90
17053;DHT22;8643;48.824;11.422;2023-04-01T18:36:39;8.50;99.90
17053;DHT22;8643;48.824;11.422;2023-04-01T18:39:17;8.60;99.90
17053;DHT22;8643;48.824;11.422;2023-04-01T18:41:56;8.60;99.90
17053;DHT22;8643;48.824;11.422;2023-04-01T18:44:41;8.60;99.90
17053;DHT22;8643;48.824;11.422;2023-04-01T18:47:21;8.60;99.90
17053;DHT22;8643;48.824;11.422;2023-04-01T18:50:02;8.60;99.90
17053;DHT22;8643;48.824;11.422;2023-04-01T18:52:45;8.50;99.90
17053;DHT22;8643;48.824;11.422;2023-04-01T18:55:30;8.50;99.90
17053;DHT22;8643;48.824;11.422;2023-04-01T18:58:18;8.50;99.90
17053;DHT22;8643;48.824;11.422;2023-04-01T19:01:04;8.40;99.90
17053;DHT22;8643;48.824;11.422;2023-04-01T19:03:44;8.40;99.90
17053;DHT22;8643;48.824;11.422;2023-04-01T19:09:15;8.40;99.90
17053;DHT22;8643;48.824;11.422;2023-04-01T19:12:06;8.30;99.90
17053;DHT22;8643;48.824;11.422;2023-04-01T19:15:14;8.30;99.90
17053;DHT22;8643;48.824;11.422;2023-04-01T19:18:02;8.30;99.90
17053;DHT22;8643;48.824;11.422;2023-04-01T19:20:52;8.20;99.90
17053;DHT22;8643;48.824;11.422;2023-04-01T19:23:53;8.30;99.90
17053;DHT22;8643;48.824;11.422;2023-04-01T19:26:39;8.20;99.90
17053;DHT22;8643;48.824;11.422;2023-04-01T19:29:23;8.30;99.90
17053;DHT22;8643;48.824;11.422;2023-04-01T19:32:12;8.30;99.90
17053;DHT22;8643;48.824;11.422;2023-04-01T19:34:56;8.20;99.90
17053;DHT22;8643;48.824;11.422;2023-04-01T19:37:38;8.30;99.90
17053;DHT22;8643;48.824;11.422;2023-04-01T19:40:22;8.30;99.90
17053;DHT22;8643;48.824;11.422;2023-04-01T19:43:10;8.30;99.90
17053;DHT22;8643;48.824;11.422;2023-04-01T19:45:57;8.30;99.90
17053;DHT22;8643;48.824;11.422;2023-04-01T19:51:26;9.20;99.90
17053;DHT22;8643;48.824;11.422;2023-04-01T19:54:13;8.30;99.90
17053;DHT22;8643;48.824;11.422;2023-04-01T19:57:00;8.40;99.90
17053;DHT22;8643;48.824;11.422;2023-04-01T19:59:43;8.40;99.90
17053;DHT22;8643;48.824;11.422;2023-04-01T20:02:33;8.40;99.90
17053;DHT22;8643;48.824;11.422;2023-04-01T20:05:33;8.40;99.90
17053;DHT22;8643;48.824;11.422;2023-04-01T20:08:19;8.40;99.90
17053;DHT22;8643;48.824;11.422;2023-04-01T20:11:04;8.50;99.90
17053;DHT22;8643;48.824;11.422;2023-04-01T20:13:51;8.40;99.90
17053;DHT22;8643;48.824;11.422;2023-04-01T20:19:26;9.00;99.90
17053;DHT22;8643;48.824;11.422;2023-04-01T20:22:08;8.40;99.90
17053;DHT22;8643;48.824;11.422;2023-04-01T20:24:53;8.40;99.90
17053;DHT22;8643;48.824;11.422;2023-04-01T20:33:51;8.50;99.90
17053;DHT22;8643;48.824;11.422;2023-04-01T20:36:38;8.50;99.90
17053;DHT22;8643;48.824;11.422;2023-04-01T20:39:45;8.50;99.90
17053;DHT22;8643;48.824;11.422;2023-04-01T20:42:34;8.50;99.90
17053;DHT22;8643;48.824;11.422;2023-04-01T20:45:23;8.50;99.90
17053;DHT22;8643;48.824;11.422;2023-04-01T20:48:26;8.40;99.90
17053;DHT22;8643;48.824;11.422;2023-04-01T20:51:13;8.50;99.90
17053;DHT22;8643;48.824;11.422;2023-04-01T20:53:49;8.50;99.90
17053;DHT22;8643;48.824;11.422;2023-04-01T20:56:31;8.50;99.90
17053;DHT22;8643;48.824;11.422;2023-04-01T20:59:23;8.40;99.90
17053;DHT22;8643;48.824;11.422;2023-04-01T21:02:13;8.40;99.90
17053;DHT22;8643;48.824;11.422;2023-04-01T21:08:16;8.40;99.90
17053;DHT22;8643;48.824;11.422;2023-04-01T21:10:56;8.40;99.90
17053;DHT22;8643;48.824;11.422;2023-04-01T21:13:52;8.40;99.90
17053;DHT22;8643;48.824;11.422;2023-04-01T21:16:41;8.40;99.90
17053;DHT22;8643;48.824;11.422;2023-04-01T21:19:31;8.40;99.90
17053;DHT22;8643;48.824;11.422;2023-04-01T21:22:42;8.40;99.90
17053;DHT22;8643;48.824;11.422;2023-04-01T21:25:27;8.50;99.90
17053;DHT22;8643;48.824;11.422;2023-04-01T21:28:22;8.50;99.90
17053;DHT22;8643;48.824;11.422;2023-04-01T21:31:17;8.40;99.90
17053;DHT22;8643;48.824;11.422;2023-04-01T21:34:06;8.40;99.90
17053;DHT22;8643;48.824;11.422;2023-04-01T21:37:13;8.40;99.90
17053;DHT22;8643;48.824;11.422;2023-04-01T21:40:20;8.30;99.90
17053;DHT22;8643;48.824;11.422;2023-04-01T21:43:23;8.30;99.90
17053;DHT22;8643;48.824;11.422;2023-04-01T21:46:40;8.30;99.90
17053;DHT22;8643;48.824;11.422;2023-04-01T21:50:00;8.20;99.90
17053;DHT22;8643;48.824;11.422;2023-04-01T21:57:12;8.00;99.90
17053;DHT22;8643;48.824;11.422;2023-04-01T22:00:20;7.90;99.90
17053;DHT22;8643;48.824;11.422;2023-04-01T22:06:12;7.90;99.90
17053;DHT22;8643;48.824;11.422;2023-04-01T22:11:37;7.70;99.90
17053;DHT22;8643;48.824;11.422;2023-04-01T22:14:29;7.70;99.90
17053;DHT22;8643;48.824;11.422;2023-04-01T22:17:13;7.70;99.90
17053;DHT22;8643;48.824;11.422;2023-04-01T22:19:55;7.80;99.90
17053;DHT22;8643;48.824;11.422;2023-04-01T22:22:39;7.80;99.90
17053;DHT22;8643;48.824;11.422;2023-04-01T22:25:23;7.80;99.90
17053;DHT22;8643;48.824;11.422;2023-04-01T22:28:03;8.00;99.90
17053;DHT22;8643;48.824;11.422;2023-04-01T22:30:41;7.90;99.90
17053;DHT22;8643;48.824;11.422;2023-04-01T22:33:21;8.00;99.90
17053;DHT22;8643;48.824;11.422;2023-04-01T22:36:05;8.00;99.90
17053;DHT22;8643;48.824;11.422;2023-04-01T22:38:52;8.00;99.90
17053;DHT22;8643;48.824;11.422;2023-04-01T22:41:42;8.00;99.90
17053;DHT22;8643;48.824;11.422;2023-04-01T22:44:32;8.00;99.90
17053;DHT22;8643;48.824;11.422;2023-04-01T22:47:18;8.00;99.90